Time;durP1;ratioP1;P1;durP2;ratioP2;P2;SDS_P1;SDS_P2;PMS_P1;PMS_P2;Temp;Humidity;BMP_temperature;BMP_pressure;BME280_temperature;BME280_humidity;BME280_pressure;Samples;Min_cycle;Max_cycle;Signal;HPM_P1;HPM_P2
2022/03/01 00:03:01;;;;;;;10.90;5.67;;;;;;;-6.23;76.58;99355.06;6224316;28;20247;-71
2022/03/01 00:06:03;;;;;;;6.37;4.50;;;;;;;-6.28;76.95;99349.00;6275428;28;20356;-71
2022/03/01 00:09:06;;;;;;;6.70;4.37;;;;;;;-6.34;76.37;99347.22;6237814;28;20683;-71
2022/03/01 00:12:08;;;;;;;7.13;4.73;;;;;;;-6.37;76.56;99336.91;6271051;28;20217;-72
2022/03/01 00:15:10;;;;;;;9.83;4.83;;;;;;;-6.40;77.19;99342.00;6257614;28;20625;-71
2022/03/01 00:18:12;;;;;;;7.50;4.47;;;;;;;-6.45;77.11;99347.06;6274727;28;20222;-72
2022/03/01 00:21:15;;;;;;;8.33;4.80;;;;;;;-6.50;76.88;99340.16;6261408;28;20602;-72
2022/03/01 00:24:17;;;;;;;7.00;4.10;;;;;;;-6.53;76.69;99342.69;6257105;28;20580;-71
2022/03/01 00:27:20;;;;;;;7.27;4.40;;;;;;;-6.56;76.83;99333.22;6256377;28;20206;-72
2022/03/01 00:30:22;;;;;;;11.43;4.77;;;;;;;-6.58;77.11;99327.19;6257433;28;20218;-73
2022/03/01 00:33:24;;;;;;;8.17;5.20;;;;;;;-6.62;77.40;99332.28;6226239;28;20305;-71
2022/03/01 00:36:26;;;;;;;8.57;5.10;;;;;;;-6.61;77.70;99334.00;6269744;28;20595;-73
2022/03/01 00:39:28;;;;;;;6.90;4.87;;;;;;;-6.65;78.07;99327.97;6270135;28;20230;-72
2022/03/01 00:42:31;;;;;;;6.87;4.80;;;;;;;-6.66;77.57;99330.50;6257090;28;20226;-72
2022/03/01 00:45:34;;;;;;;10.63;5.13;;;;;;;-6.70;77.68;99319.34;6257379;28;20761;-72
2022/03/01 00:48:36;;;;;;;15.53;5.73;;;;;;;-6.72;78.37;99313.31;6258583;28;20304;-72
2022/03/01 00:51:39;;;;;;;7.97;4.43;;;;;;;-6.73;77.39;99315.03;6280251;28;20247;-71
2022/03/01 00:54:41;;;;;;;8.30;4.67;;;;;;;-6.77;78.40;99315.81;6262947;28;20725;-73
2022/03/01 00:57:43;;;;;;;10.90;5.80;;;;;;;-6.79;78.69;99316.66;6279853;28;20309;-72
2022/03/01 01:00:45;;;;;;;6.83;5.10;;;;;;;-6.80;77.83;99312.34;6280354;28;20723;-71
2022/03/01 01:03:47;;;;;;;8.03;4.93;;;;;;;-6.80;78.58;99309.78;6279747;28;20272;-72
2022/03/01 01:06:49;;;;;;;10.87;5.60;;;;;;;-6.83;78.57;99307.16;6261994;28;20336;-72
2022/03/01 01:09:52;;;;;;;8.90;4.83;;;;;;;-6.86;78.24;99310.53;6267773;28;20717;-74
2022/03/01 01:12:54;;;;;;;7.80;5.03;;;;;;;-6.87;78.06;99305.38;6260739;28;20238;-71
2022/03/01 01:15:57;;;;;;;6.57;4.43;;;;;;;-6.83;78.26;99305.47;6279039;28;20253;-71
2022/03/01 01:18:59;;;;;;;9.50;5.67;;;;;;;-6.80;78.99;99302.09;6259725;28;20233;-72
2022/03/01 01:25:24;;;;;;;7.77;4.77;;;;;;;-6.85;79.05;99293.44;6261913;28;20730;-73
2022/03/01 01:28:26;;;;;;;7.10;4.80;;;;;;;-6.88;78.57;99301.09;6272938;28;20240;-72
2022/03/01 01:31:28;;;;;;;8.67;5.23;;;;;;;-6.91;78.81;99309.63;6275020;28;20309;-72
2022/03/01 01:34:48;;;;;;;10.07;5.17;;;;;;;-6.94;78.23;99318.97;6278172;28;20787;-72
2022/03/01 01:37:52;;;;;;;9.13;5.27;;;;;;;-6.96;78.12;99311.25;6245447;28;20245;-72
2022/03/01 01:40:54;;;;;;;10.73;5.70;;;;;;;-6.97;79.39;99313.78;6254282;28;20599;-73
2022/03/01 01:43:56;;;;;;;8.77;5.33;;;;;;;-7.00;78.43;99308.63;6251608;28;20631;-72
2022/03/01 01:46:58;;;;;;;8.03;4.83;;;;;;;-7.02;78.40;99305.16;6253767;28;20321;-72
2022/03/01 01:50:01;;;;;;;9.33;5.13;;;;;;;-7.02;78.83;99297.47;6236282;28;20219;-71
2022/03/01 01:53:03;;;;;;;9.17;5.30;;;;;;;-7.03;79.34;99294.03;6254406;28;20226;-72
2022/03/01 01:56:05;;;;;;;10.00;5.80;;;;;;;-7.01;78.17;99287.22;6253414;28;20305;-72
2022/03/01 01:59:08;;;;;;;8.87;5.30;;;;;;;-7.03;78.66;99278.66;6232889;28;20223;-73
2022/03/01 02:02:14;;;;;;;9.37;5.23;;;;;;;-7.00;79.05;99285.53;6246162;28;20234;-72
2022/03/01 02:05:16;;;;;;;11.07;5.60;;;;;;;-7.00;79.58;99277.84;6236794;28;20227;-72
2022/03/01 02:08:18;;;;;;;8.37;5.30;;;;;;;-7.01;79.08;99266.72;6253087;28;20324;-73
2022/03/01 02:11:20;;;;;;;8.93;5.50;;;;;;;-7.00;78.62;99260.75;6234930;28;20249;-72
2022/03/01 02:14:22;;;;;;;7.33;5.17;;;;;;;-7.02;78.57;99257.28;6236105;28;20215;-72
2022/03/01 02:17:25;;;;;;;11.10;5.80;;;;;;;-7.05;79.94;99262.34;6252333;28;20674;-72
2022/03/01 02:20:29;;;;;;;9.03;5.67;;;;;;;-7.08;78.75;99258.03;6235096;28;20750;-72
2022/03/01 02:23:31;;;;;;;7.63;5.23;;;;;;;-7.09;79.01;99266.56;6254408;28;20746;-72
2022/03/01 02:26:33;;;;;;;9.97;5.63;;;;;;;-7.10;79.64;99264.00;6251966;28;20653;-72
2022/03/01 02:29:35;;;;;;;10.47;5.10;;;;;;;-7.12;79.13;99263.97;6271191;28;20760;-71
2022/03/01 02:32:38;;;;;;;8.17;4.73;;;;;;;-7.16;79.21;99269.88;6239233;28;20314;-72
2022/03/01 03:35:12;;;;;;;10.03;5.23;;;;;;;-7.43;80.38;99259.22;4884366;28;20239;-73
2022/03/01 03:38:14;;;;;;;8.30;5.63;;;;;;;-7.42;80.63;99257.50;6235070;28;20257;-72
2022/03/01 03:41:17;;;;;;;8.97;5.27;;;;;;;-7.41;80.56;99252.41;6246618;28;20233;-73
2022/03/01 03:44:19;;;;;;;9.93;5.93;;;;;;;-7.37;81.36;99258.44;6257945;28;20233;-72
2022/03/01 03:47:22;;;;;;;9.33;5.63;;;;;;;-7.40;80.88;99260.97;6258208;28;20238;-72
2022/03/01 03:50:27;;;;;;;9.83;5.37;;;;;;;-7.43;80.96;99260.91;6276982;28;20240;-72
2022/03/01 03:53:29;;;;;;;8.60;5.10;;;;;;;-7.47;80.56;99265.09;6258251;28;20581;-72
2022/03/01 03:56:31;;;;;;;7.70;5.73;;;;;;;-7.49;80.35;99261.69;6262921;28;20713;-72
2022/03/01 03:59:34;;;;;;;12.33;6.03;;;;;;;-7.53;80.43;99258.19;6256479;28;20250;-73
2022/03/01 04:02:36;;;;;;;11.77;5.30;;;;;;;-7.52;81.00;99256.50;6273389;28;20616;-72
2022/03/01 04:05:38;;;;;;;7.10;4.63;;;;;;;-7.56;80.34;99250.44;6279366;28;20733;-73
2022/03/01 04:08:40;;;;;;;9.83;6.13;;;;;;;-7.57;80.54;99245.28;6254667;28;20595;-72
2022/03/01 04:11:43;;;;;;;8.23;6.00;;;;;;;-7.61;80.57;99239.28;6261087;28;20216;-73
2022/03/01 04:14:45;;;;;;;11.00;5.40;;;;;;;-7.63;81.56;99242.63;6275240;28;20289;-72
2022/03/01 04:17:47;;;;;;;9.37;5.13;;;;;;;-7.68;80.47;99247.66;6275341;28;20227;-72
2022/03/01 04:20:49;;;;;;;11.37;6.07;;;;;;;-7.67;81.44;99239.16;6237784;28;20271;-72
2022/03/01 04:23:51;;;;;;;10.23;6.10;;;;;;;-7.65;80.93;99240.03;6255345;28;20232;-73
2022/03/01 04:26:53;;;;;;;10.67;5.90;;;;;;;-7.65;81.00;99234.06;6274812;28;20777;-73
2022/03/01 04:29:55;;;;;;;8.33;4.67;;;;;;;-7.67;80.91;99231.47;6274882;28;20222;-73
2022/03/01 04:32:57;;;;;;;10.73;6.07;;;;;;;-7.64;80.44;99228.09;6274491;28;20571;-73
2022/03/01 04:36:02;;;;;;;11.00;6.13;;;;;;;-7.68;80.89;99229.72;6267696;28;20226;-73
2022/03/01 04:39:04;;;;;;;11.30;5.73;;;;;;;-7.71;81.03;99228.84;6255328;28;20305;-72
2022/03/01 04:42:06;;;;;;;13.07;6.50;;;;;;;-7.73;80.83;99233.06;6257130;28;20228;-73
2022/03/01 04:45:09;;;;;;;13.67;6.13;;;;;;;-7.76;81.94;99227.88;6257901;28;20202;-73
2022/03/01 04:48:12;;;;;;;11.23;5.87;;;;;;;-7.74;81.28;99226.22;6257016;28;20301;-74
2022/03/01 04:51:14;;;;;;;10.53;5.50;;;;;;;-7.75;81.02;99222.78;6255556;28;20215;-73
2022/03/01 04:54:16;;;;;;;9.40;6.03;;;;;;;-7.76;81.62;99236.44;6267030;28;20697;-74
2022/03/01 04:57:19;;;;;;;15.57;7.00;;;;;;;-7.81;81.18;99230.38;6256948;28;20230;-73
2022/03/01 05:00:21;;;;;;;11.23;5.83;;;;;;;-7.80;80.71;99237.25;6257786;28;20230;-73
2022/03/01 05:03:23;;;;;;;12.40;5.80;;;;;;;-7.80;81.72;99236.38;6274407;28;20299;-72
2022/03/01 05:06:26;;;;;;;10.10;5.93;;;;;;;-7.79;82.24;99232.97;6274368;28;20261;-73
2022/03/01 05:09:28;;;;;;;13.37;6.10;;;;;;;-7.77;81.91;99231.28;6251930;28;20269;-72
2022/03/01 05:12:30;;;;;;;11.50;5.40;;;;;;;-7.80;81.92;99224.44;6274457;28;20226;-72
2022/03/01 05:15:32;;;;;;;10.33;5.50;;;;;;;-7.79;80.92;99222.72;6275143;28;20230;-72
2022/03/01 05:18:34;;;;;;;10.83;5.47;;;;;;;-7.81;80.96;99225.25;6255750;28;20232;-73
2022/03/01 05:21:36;;;;;;;8.03;5.43;;;;;;;-7.81;80.91;99225.25;6247692;28;20228;-72
2022/03/01 05:24:39;;;;;;;9.13;5.70;;;;;;;-7.80;81.97;99231.25;6256447;28;20725;-72
2022/03/01 05:27:44;;;;;;;9.17;5.70;;;;;;;-7.79;81.92;99226.16;6274773;28;20587;-73
2022/03/01 05:30:46;;;;;;;9.70;5.87;;;;;;;-7.80;81.30;99224.44;6275016;28;20577;-73
2022/03/01 05:33:48;;;;;;;9.27;6.50;;;;;;;-7.79;82.34;99225.28;6274549;28;20642;-72
2022/03/01 05:36:50;;;;;;;9.33;5.87;;;;;;;-7.71;81.79;99229.69;6220799;28;20247;-72
2022/03/01 05:39:52;;;;;;;11.87;6.20;;;;;;;-7.71;81.33;99236.53;6261477;28;20238;-72
2022/03/01 05:42:55;;;;;;;9.97;6.43;;;;;;;-7.72;82.10;99237.38;6261600;28;20701;-72
2022/03/01 05:45:57;;;;;;;11.60;6.67;;;;;;;-7.70;81.98;99236.56;6261188;28;20375;-72
2022/03/01 05:48:59;;;;;;;11.30;6.97;;;;;;;-7.68;82.32;99247.66;6278714;28;20230;-72
2022/03/01 05:52:01;;;;;;;14.33;7.10;;;;;;;-7.63;81.79;99243.50;6261535;28;20254;-72
2022/03/01 05:55:09;;;;;;;9.03;5.90;;;;;;;-7.63;82.50;99240.06;6260325;28;20232;-71
2022/03/01 05:58:11;;;;;;;12.77;6.43;;;;;;;-7.58;82.09;99252.13;6278252;28;20269;-71
2022/03/01 06:01:13;;;;;;;10.93;6.43;;;;;;;-7.44;82.59;99247.22;6278329;28;20242;-71
2022/03/01 06:04:15;;;;;;;14.03;7.10;;;;;;;-7.38;82.28;99256.69;6262113;28;20739;-71
2022/03/01 06:07:19;;;;;;;12.50;7.03;;;;;;;-7.33;81.78;99260.22;6255496;28;20262;-71
2022/03/01 06:10:22;;;;;;;11.83;7.57;;;;;;;-7.27;81.49;99257.72;6272086;28;20237;-71
2022/03/01 06:13:24;;;;;;;13.17;7.33;;;;;;;-7.10;81.21;99257.19;6244043;28;20732;-71
2022/03/01 06:16:26;;;;;;;10.97;6.87;;;;;;;-7.08;82.14;99254.59;6276750;28;20364;-71
2022/03/01 06:19:28;;;;;;;11.57;7.50;;;;;;;-7.04;81.02;99265.78;6252206;28;20729;-71
2022/03/01 06:22:31;;;;;;;11.43;7.10;;;;;;;-6.98;82.01;99258.16;6258310;28;20730;-70
2022/03/01 06:25:33;;;;;;;13.00;7.90;;;;;;;-6.95;81.95;99260.78;6260467;28;20733;-70
2022/03/01 06:28:35;;;;;;;29.20;10.10;;;;;;;-6.90;81.89;99259.16;6277298;28;20245;-72
2022/03/01 06:31:37;;;;;;;12.07;7.63;;;;;;;-6.81;82.11;99255.03;6260171;28;20329;-72
2022/03/01 06:34:49;;;;;;;24.50;7.77;;;;;;;-6.78;80.49;99261.88;6256243;28;20276;-71
2022/03/01 06:38:09;;;;;;;13.00;7.60;;;;;;;-6.69;80.69;99258.59;6229571;28;20752;-71
2022/03/01 06:41:11;;;;;;;13.63;7.23;;;;;;;-6.62;81.26;99263.84;6268876;28;20240;-70
2022/03/01 06:44:13;;;;;;;13.87;7.70;;;;;;;-6.55;80.14;99257.06;6276976;28;20329;-70
2022/03/01 06:47:16;;;;;;;14.50;7.20;;;;;;;-6.54;79.87;99261.34;6275872;28;20230;-72
2022/03/01 06:50:18;;;;;;;16.07;7.73;;;;;;;-6.54;80.51;99259.66;6276483;28;20312;-71
2022/03/01 06:53:20;;;;;;;17.93;7.67;;;;;;;-6.47;80.37;99276.00;6242206;28;20224;-71
2022/03/01 06:56:22;;;;;;;13.43;7.63;;;;;;;-6.43;80.48;99264.94;6277948;28;20713;-71
2022/03/01 06:59:26;;;;;;;36.27;8.50;;;;;;;-6.42;80.16;99270.09;6276844;28;20256;-72
2022/03/01 07:02:29;;;;;;;12.43;6.83;;;;;;;-6.34;80.73;99275.31;6259216;28;20309;-71
2022/03/01 07:05:31;;;;;;;11.97;7.60;;;;;;;-6.22;79.81;99272.03;6276619;28;20238;-71
2022/03/01 07:08:34;;;;;;;16.00;8.20;;;;;;;-6.20;79.27;99267.78;6261292;28;20286;-71
2022/03/01 07:11:36;;;;;;;11.07;7.20;;;;;;;-6.14;79.98;99270.41;6264374;28;20699;-71
2022/03/01 07:14:38;;;;;;;33.43;8.50;;;;;;;-6.05;79.85;99268.78;6257748;28;20282;-71
2022/03/01 07:17:40;;;;;;;14.53;7.30;;;;;;;-5.98;79.15;99269.72;6276022;28;20698;-71
2022/03/01 07:20:43;;;;;;;35.17;11.07;;;;;;;-5.72;79.40;99270.84;6259461;28;20235;-71
2022/03/01 07:23:45;;;;;;;30.63;10.03;;;;;;;-5.43;79.31;99267.66;6258631;28;20732;-71
2022/03/01 07:26:47;;;;;;;40.67;9.83;;;;;;;-5.32;78.33;99261.75;6259136;28;20314;-71
2022/03/01 07:29:49;;;;;;;19.30;9.90;;;;;;;-5.16;78.06;99255.00;6275220;28;20230;-71
2022/03/01 07:32:56;;;;;;;16.07;9.63;;;;;;;-4.91;77.65;99249.19;6276049;28;20760;-71
2022/03/01 07:36:00;;;;;;;13.67;9.30;;;;;;;-4.64;77.36;99250.19;6275531;28;20233;-71
2022/03/01 07:39:03;;;;;;;15.00;9.53;;;;;;;-4.39;75.71;99246.03;6249609;28;20223;-71
2022/03/01 07:42:05;;;;;;;15.83;9.80;;;;;;;-4.09;75.02;99246.97;6276445;28;20252;-70
2022/03/01 07:45:08;;;;;;;15.07;9.77;;;;;;;-3.81;74.12;99245.34;6275394;28;20824;-70
2022/03/01 07:48:10;;;;;;;19.20;9.43;;;;;;;-3.64;72.96;99242.78;6276186;28;20785;-71
2022/03/01 07:51:13;;;;;;;12.53;8.77;;;;;;;-3.44;71.61;99242.81;6275713;28;20210;-70
2022/03/01 07:54:15;;;;;;;14.13;9.27;;;;;;;-3.23;69.82;99236.78;6276023;28;20586;-71
2022/03/01 07:57:18;;;;;;;13.37;8.80;;;;;;;-3.06;69.81;99237.63;6275488;28;20713;-71
2022/03/01 08:00:21;;;;;;;11.77;8.13;;;;;;;-2.94;69.47;99236.75;6275190;28;20665;-71
2022/03/01 08:03:25;;;;;;;12.30;7.97;;;;;;;-2.80;69.76;99237.59;6275671;28;20603;-71
2022/03/01 08:06:28;;;;;;;13.47;7.87;;;;;;;-2.66;68.59;99241.88;6275030;28;20658;-71
2022/03/01 08:09:30;;;;;;;15.50;8.00;;;;;;;-2.46;67.44;99234.06;6240803;28;20276;-70
2022/03/01 08:12:32;;;;;;;13.10;8.13;;;;;;;-2.24;66.87;99238.28;6274662;28;20222;-70
2022/03/01 08:15:34;;;;;;;12.07;7.57;;;;;;;-2.02;66.21;99233.88;6274830;28;20690;-70
2022/03/01 08:18:37;;;;;;;11.80;7.40;;;;;;;-1.78;65.09;99235.44;6272502;28;20233;-70
2022/03/01 08:21:39;;;;;;;10.23;7.37;;;;;;;-1.50;64.07;99231.78;6270840;28;20237;-70
2022/03/01 08:24:41;;;;;;;12.70;7.93;;;;;;;-1.16;62.66;99232.41;6274667;28;20351;-70
2022/03/01 08:27:44;;;;;;;10.20;7.30;;;;;;;-0.92;61.22;99225.28;6274963;28;20787;-70
2022/03/01 08:30:49;;;;;;;10.13;7.47;;;;;;;-0.73;59.78;99216.44;6274263;28;20230;-70
2022/03/01 08:33:51;;;;;;;12.33;6.93;;;;;;;-0.42;59.59;99207.44;6275518;28;20308;-71
2022/03/01 08:36:53;;;;;;;12.73;6.73;;;;;;;-0.13;58.30;99208.81;6272740;28;20222;-70
2022/03/01 08:39:55;;;;;;;11.10;6.57;;;;;;;0.25;57.42;99209.16;6233016;28;20352;-70
2022/03/01 08:42:57;;;;;;;13.00;7.40;;;;;;;0.41;55.99;99208.91;6274938;28;20222;-70
2022/03/01 08:45:59;;;;;;;9.23;5.93;;;;;;;0.67;56.62;99212.84;6274476;28;20226;-70
2022/03/01 08:49:01;;;;;;;8.93;6.03;;;;;;;0.98;55.15;99205.38;6275683;28;20234;-70
2022/03/01 08:52:03;;;;;;;11.30;6.53;;;;;;;1.18;54.24;99205.03;6256815;28;20230;-70
2022/03/01 08:55:07;;;;;;;9.40;6.10;;;;;;;1.02;53.95;99203.56;6274949;28;20628;-69
2022/03/01 08:58:10;;;;;;;10.03;6.70;;;;;;;1.33;53.32;99194.31;6256718;28;20738;-69
2022/03/01 09:01:12;;;;;;;9.50;6.07;;;;;;;1.50;52.47;99190.56;6275980;28;20219;-69
2022/03/01 09:04:14;;;;;;;10.27;6.60;;;;;;;1.39;52.38;99191.63;6274955;28;20732;-69
2022/03/01 09:07:17;;;;;;;9.37;6.00;;;;;;;1.60;52.08;99185.13;6252086;28;20321;-68
2022/03/01 09:10:21;;;;;;;8.70;6.13;;;;;;;1.98;52.04;99188.69;6256107;28;20633;-68
2022/03/01 09:13:24;;;;;;;8.97;6.10;;;;;;;2.03;50.43;99179.88;6280752;28;20233;-68
2022/03/01 09:16:26;;;;;;;10.10;5.50;;;;;;;2.37;50.13;99169.56;6267241;28;20237;-68
2022/03/01 09:19:30;;;;;;;8.60;5.13;;;;;;;2.76;49.21;99161.66;6259136;28;20317;-68
2022/03/01 09:22:35;;;;;;;7.67;5.37;;;;;;;2.99;49.23;99155.84;6264531;28;20226;-68
2022/03/01 09:25:38;;;;;;;9.67;5.60;;;;;;;3.11;47.54;99145.06;6262448;28;20758;-68
2022/03/01 09:28:40;;;;;;;11.00;6.00;;;;;;;3.14;49.01;99145.88;6261105;28;20659;-68
2022/03/01 09:31:42;;;;;;;8.63;5.67;;;;;;;3.56;48.23;99138.59;6279036;28;20707;-68
2022/03/01 09:34:50;;;;;;;9.83;5.97;;;;;;;3.85;46.87;99132.53;6261424;28;20750;-68
2022/03/01 09:37:52;;;;;;;8.90;6.43;;;;;;;3.93;45.17;99133.13;6268635;28;20231;-68
2022/03/01 09:40:54;;;;;;;8.93;5.93;;;;;;;4.05;46.04;99134.53;6272822;28;20257;-68
2022/03/01 09:43:58;;;;;;;6.93;5.20;;;;;;;3.59;44.38;99130.66;6277827;28;20594;-69
2022/03/01 09:47:02;;;;;;;8.70;5.93;;;;;;;3.69;45.13;99132.09;6261700;28;20226;-68
2022/03/01 09:50:06;;;;;;;6.90;4.90;;;;;;;3.86;45.21;99130.75;6278519;28;20239;-68
2022/03/01 09:53:09;;;;;;;7.20;5.27;;;;;;;4.14;44.45;99126.41;6259890;28;20806;-68
2022/03/01 09:56:12;;;;;;;8.30;6.07;;;;;;;3.63;44.60;99132.28;6278013;28;20273;-68
2022/03/01 09:59:15;;;;;;;9.40;5.57;;;;;;;3.70;45.66;99122.50;6260998;28;20239;-68
2022/03/01 10:02:17;;;;;;;9.53;6.03;;;;;;;4.45;45.23;99114.06;6277781;28;20250;-68
2022/03/01 10:05:39;;;;;;;11.43;6.50;;;;;;;4.76;44.49;99116.53;6278577;28;20860;-68
2022/03/01 10:08:41;;;;;;;10.13;6.20;;;;;;;5.12;42.88;99109.16;6267484;28;20246;-68
2022/03/01 10:11:45;;;;;;;11.13;7.23;;;;;;;4.92;43.31;99124.69;6275831;28;20235;-68
2022/03/01 10:14:55;;;;;;;8.63;6.37;;;;;;;4.78;43.35;99119.94;6279621;28;20229;-68
2022/03/01 10:17:59;;;;;;;10.87;6.40;;;;;;;4.99;43.10;99118.31;6277711;28;20696;-68
2022/03/01 10:21:04;;;;;;;8.50;6.37;;;;;;;5.37;42.01;99119.59;6263387;28;20261;-69
2022/03/01 10:24:07;;;;;;;11.63;7.20;;;;;;;5.01;42.50;99113.03;6277669;28;20614;-68
2022/03/01 10:27:10;;;;;;;12.07;7.87;;;;;;;4.93;41.44;99115.94;6259553;28;20216;-68
2022/03/01 10:30:24;;;;;;;10.27;7.20;;;;;;;4.91;43.76;99112.50;6277238;28;20219;-68
2022/03/01 10:33:26;;;;;;;8.70;6.67;;;;;;;5.47;42.55;99114.88;6277116;28;20233;-69
2022/03/01 10:36:30;;;;;;;10.40;6.57;;;;;;;5.71;40.46;99113.94;6258364;28;20591;-69
2022/03/01 10:39:33;;;;;;;11.00;7.57;;;;;;;5.92;39.90;99121.03;6253757;28;20636;-69
2022/03/01 10:42:35;;;;;;;10.57;7.40;;;;;;;6.09;40.90;99099.41;6259780;28;20710;-69
2022/03/01 10:45:47;;;;;;;10.20;6.97;;;;;;;6.61;40.84;99092.06;6275965;28;20233;-69
2022/03/01 10:49:08;;;;;;;11.57;7.70;;;;;;;6.70;39.45;99085.56;6258342;28;20715;-69
2022/03/01 10:52:12;;;;;;;11.50;7.93;;;;;;;6.73;39.06;99081.06;6277061;28;20602;-69
2022/03/01 10:55:43;;;;;;;12.40;7.73;;;;;;;6.72;39.29;99084.59;6277655;28;20585;-68
2022/03/01 10:58:48;;;;;;;12.13;6.77;;;;;;;6.89;38.98;99081.22;6276029;28;20236;-68
2022/03/01 11:01:50;;;;;;;9.57;7.50;;;;;;;7.17;38.80;99078.28;6259882;28;20284;-68
2022/03/01 11:04:53;;;;;;;9.13;7.17;;;;;;;6.23;39.36;99080.50;6275370;28;20263;-68
2022/03/01 11:07:58;;;;;;;11.63;7.60;;;;;;;5.94;40.41;99071.19;6267546;28;20228;-68
2022/03/01 11:11:03;;;;;;;8.17;6.63;;;;;;;6.43;39.41;99072.69;6276743;28;20223;-68
2022/03/01 11:14:07;;;;;;;10.77;7.40;;;;;;;6.73;39.15;99072.31;6275647;28;20223;-68
2022/03/01 11:17:44;;;;;;;11.67;7.60;;;;;;;6.96;38.63;99065.19;6276737;28;20230;-69
2022/03/01 11:20:49;;;;;;;8.80;6.70;;;;;;;7.62;37.60;99067.47;6245111;28;20231;-68
2022/03/01 11:23:54;;;;;;;9.60;6.80;;;;;;;7.45;36.71;99064.78;6268211;28;20714;-68
2022/03/01 11:27:07;;;;;;;10.60;7.83;;;;;;;6.62;36.63;99068.38;6249751;28;20236;-68
2022/03/01 11:30:11;;;;;;;11.93;7.60;;;;;;;5.60;38.89;99062.88;6274850;28;20756;-69
2022/03/01 11:33:27;;;;;;;11.73;7.57;;;;;;;5.64;39.08;99057.50;6257489;28;20621;-69
2022/03/01 11:36:31;;;;;;;11.73;7.67;;;;;;;6.08;40.08;99034.81;6272554;28;20227;-68
2022/03/01 11:39:36;;;;;;;11.80;8.20;;;;;;;6.80;39.46;99039.66;6257103;28;20721;-68
2022/03/01 11:42:38;;;;;;;11.13;7.60;;;;;;;6.64;36.81;99029.84;6257866;28;20728;-68
2022/03/01 11:45:47;;;;;;;10.53;7.43;;;;;;;6.51;37.34;99039.13;6274916;28;20733;-69
2022/03/01 11:48:57;;;;;;;8.70;6.87;;;;;;;6.40;37.97;99036.09;6256867;28;20218;-68
2022/03/01 11:52:00;;;;;;;10.20;7.97;;;;;;;6.79;38.09;99030.94;6275627;28;20287;-68
2022/03/01 11:55:02;;;;;;;9.10;7.33;;;;;;;7.46;36.56;99024.44;6259239;28;20242;-69
2022/03/01 11:58:05;;;;;;;9.67;7.30;;;;;;;7.32;36.64;99012.78;6275273;28;20245;-68
2022/03/01 12:01:08;;;;;;;8.17;6.80;;;;;;;7.45;34.90;99010.47;6258825;28;20806;-68
2022/03/01 12:04:11;;;;;;;10.50;7.47;;;;;;;7.39;35.50;99008.97;6276510;28;20231;-69
2022/03/01 12:07:21;;;;;;;10.03;7.27;;;;;;;7.50;35.45;99012.84;6254197;28;20773;-69
2022/03/01 12:10:25;;;;;;;11.33;7.43;;;;;;;7.32;36.17;99004.91;6252063;28;20250;-69
2022/03/01 12:13:43;;;;;;;8.30;6.40;;;;;;;8.28;35.25;98999.47;6257974;28;20744;-69
2022/03/01 12:16:46;;;;;;;10.17;7.47;;;;;;;8.39;35.54;98987.47;6275393;28;20235;-69
2022/03/01 12:19:59;;;;;;;10.50;7.53;;;;;;;7.84;34.81;98983.22;6229688;28;20245;-68
2022/03/01 12:23:03;;;;;;;9.47;7.37;;;;;;;8.39;34.53;98984.00;6271648;28;20291;-69
2022/03/01 12:26:07;;;;;;;7.87;6.80;;;;;;;8.00;35.04;98984.16;6274480;28;20313;-69
2022/03/01 12:29:10;;;;;;;10.90;7.47;;;;;;;7.76;35.26;98962.56;6274998;28;20237;-69
2022/03/01 12:32:13;;;;;;;10.77;7.70;;;;;;;7.99;35.72;98964.91;6275072;28;20371;-69
2022/03/01 12:35:15;;;;;;;10.40;7.90;;;;;;;7.85;34.18;98958.66;6113596;28;22177;-69
2022/03/01 12:38:17;;;;;;;12.10;7.47;;;;;;;7.91;35.35;98960.97;6221150;28;20236;-69
2022/03/01 12:41:22;;;;;;;10.97;7.40;;;;;;;8.36;35.00;98948.19;6274755;28;20236;-69
2022/03/01 12:44:31;;;;;;;9.97;7.23;;;;;;;9.28;33.15;98938.06;6256063;28;20258;-69
2022/03/01 12:47:33;;;;;;;11.13;7.93;;;;;;;9.82;32.73;98932.31;6257249;28;20259;-69
2022/03/01 12:50:53;;;;;;;11.23;7.60;;;;;;;9.32;32.17;98931.69;6274927;28;20236;-69
2022/03/01 12:53:57;;;;;;;14.67;7.97;;;;;;;9.44;32.27;98923.09;6274733;28;20718;-68
2022/03/01 12:57:04;;;;;;;9.37;7.90;;;;;;;9.77;32.86;98917.72;6274583;28;20272;-69
2022/03/01 13:00:13;;;;;;;10.73;7.40;;;;;;;10.20;32.30;98909.03;6274463;28;20230;-69
2022/03/01 13:03:29;;;;;;;11.30;8.33;;;;;;;10.37;30.80;98907.19;6273713;28;20219;-68
2022/03/01 13:06:32;;;;;;;10.23;7.57;;;;;;;10.62;32.24;98904.75;6275426;28;20241;-68
2022/03/01 13:09:34;;;;;;;12.70;8.00;;;;;;;11.01;31.01;98904.09;6258048;28;20237;-68
2022/03/01 13:12:36;;;;;;;11.00;8.03;;;;;;;11.28;30.33;98890.94;6273067;28;20368;-68
2022/03/01 13:15:39;;;;;;;12.53;8.50;;;;;;;11.57;30.11;98894.38;6275054;28;20323;-68
2022/03/01 13:18:41;;;;;;;10.93;7.70;;;;;;;11.19;29.78;98884.44;6253963;28;20231;-68
2022/03/01 13:21:53;;;;;;;9.77;7.67;;;;;;;11.23;29.26;98875.38;6270356;28;20795;-68
2022/03/01 13:24:55;;;;;;;9.43;7.17;;;;;;;12.06;28.64;98869.03;6273608;28;20259;-68
2022/03/01 13:27:57;;;;;;;11.70;7.20;;;;;;;13.42;27.27;98864.78;6272590;28;20235;-68
2022/03/01 13:30:59;;;;;;;9.77;7.10;;;;;;;15.17;23.99;98856.66;6262666;28;20328;-68
2022/03/01 13:34:02;;;;;;;10.43;7.13;;;;;;;16.95;21.72;98855.81;6274879;28;20881;-68
2022/03/01 13:37:15;;;;;;;10.70;8.10;;;;;;;18.39;19.90;98847.97;6270265;28;20244;-69
2022/03/01 13:40:18;;;;;;;9.53;7.33;;;;;;;19.38;18.86;98843.81;6236372;28;20232;-67
2022/03/01 13:43:27;;;;;;;8.83;7.20;;;;;;;20.30;17.59;98846.22;6256813;28;20391;-67
2022/03/01 13:46:29;;;;;;;10.13;7.33;;;;;;;20.85;17.13;98827.16;6274604;28;20237;-68
2022/03/01 13:49:40;;;;;;;9.30;6.97;;;;;;;21.54;16.40;98826.97;6274102;28;20236;-67
2022/03/01 13:52:44;;;;;;;9.63;7.17;;;;;;;21.73;15.62;98817.75;6277734;28;20233;-68
2022/03/01 13:55:47;;;;;;;8.07;6.17;;;;;;;21.80;15.37;98812.53;6275357;28;20232;-67
2022/03/01 13:58:50;;;;;;;10.03;6.93;;;;;;;22.17;15.28;98801.31;6278370;28;20438;-67
2022/03/01 14:01:53;;;;;;;15.10;7.53;;;;;;;22.13;15.33;98805.38;6260779;28;20243;-68
2022/03/01 14:05:01;;;;;;;10.13;7.23;;;;;;;22.55;15.53;98792.53;6277973;28;20734;-68
2022/03/01 14:08:11;;;;;;;9.60;7.90;;;;;;;23.12;15.13;98792.38;6273411;28;20284;-67
2022/03/01 14:11:15;;;;;;;9.93;7.47;;;;;;;23.52;14.82;98789.47;6262206;28;20370;-70
2022/03/01 14:14:17;;;;;;;10.70;7.60;;;;;;;23.66;14.73;98774.38;6277323;28;20229;-69
2022/03/01 14:17:24;;;;;;;9.93;7.63;;;;;;;22.76;15.12;98775.84;6277946;28;20225;-68
2022/03/01 14:20:29;;;;;;;12.20;8.20;;;;;;;19.40;17.71;98766.88;6243242;28;20239;-70
2022/03/01 14:23:31;;;;;;;12.30;8.20;;;;;;;15.00;21.85;98776.41;6273396;28;20705;-68
2022/03/01 14:26:34;;;;;;;11.00;8.20;;;;;;;12.38;25.52;98771.53;6277213;28;20815;-68
2022/03/01 14:29:35;;;;;;;11.90;8.47;;;;;;;10.17;29.09;98777.28;6277587;28;20225;-67
2022/03/01 14:32:38;;;;;;;13.33;7.50;;;;;;;8.80;30.87;98771.28;6277715;28;20237;-68
2022/03/01 14:35:40;;;;;;;15.03;8.00;;;;;;;7.53;32.68;98776.31;6255158;28;20237;-68
2022/03/01 14:38:43;;;;;;;9.90;7.50;;;;;;;6.69;34.17;98771.72;6264222;28;20709;-68
2022/03/01 14:41:45;;;;;;;13.17;8.30;;;;;;;6.24;35.51;98771.16;6261039;28;20667;-70
2022/03/01 14:44:47;;;;;;;12.20;7.87;;;;;;;5.91;35.99;98760.41;6258762;28;20713;-69
2022/03/01 14:47:50;;;;;;;12.33;8.20;;;;;;;5.47;36.69;98754.44;6277141;28;20241;-69
2022/03/01 14:50:52;;;;;;;12.83;8.27;;;;;;;5.34;36.47;98742.78;6259638;28;20241;-70
2022/03/01 14:53:54;;;;;;;10.13;7.40;;;;;;;5.25;37.64;98747.56;6276376;28;20870;-69
2022/03/01 14:56:57;;;;;;;12.00;7.40;;;;;;;5.13;37.19;98743.69;6277241;28;20230;-69
2022/03/01 14:59:59;;;;;;;12.00;8.00;;;;;;;5.02;38.28;98744.13;6276839;28;20238;-70
2022/03/01 15:03:02;;;;;;;14.17;8.60;;;;;;;4.87;37.77;98738.66;6276641;28;20222;-72
2022/03/01 15:06:05;;;;;;;11.27;8.10;;;;;;;4.68;38.72;98734.19;6259226;28;20624;-71
2022/03/01 15:09:07;;;;;;;9.70;6.93;;;;;;;4.70;38.29;98736.72;6256048;28;20231;-71
2022/03/01 15:12:09;;;;;;;10.57;7.40;;;;;;;4.67;38.95;98722.03;6256885;28;20320;-72
2022/03/01 15:15:12;;;;;;;12.10;8.33;;;;;;;4.55;39.12;98730.34;6276376;28;20642;-72
2022/03/01 15:18:15;;;;;;;11.97;7.23;;;;;;;4.45;39.45;98729.84;6275450;28;20292;-71
2022/03/01 15:21:16;;;;;;;9.10;7.13;;;;;;;4.35;39.75;98732.88;6266184;28;20226;-71
2022/03/01 15:24:19;;;;;;;11.00;8.23;;;;;;;4.23;39.14;98731.59;6276787;28;20222;-71
2022/03/01 15:27:22;;;;;;;10.03;7.40;;;;;;;4.10;39.78;98732.94;6276160;28;20267;-72